createdAt,value
2022-11-15T00:01:21.112Z,58.00
2022-11-15T00:03:47.482Z,58.95
2022-11-15T00:06:13.823Z,59.31
2022-11-15T00:08:40.159Z,58.83
2022-11-15T00:11:06.497Z,59.21
2022-11-15T00:13:33.172Z,59.04
2022-11-15T00:15:59.834Z,57.99
2022-11-15T00:18:26.163Z,58.46
2022-11-15T00:20:52.498Z,59.32
2022-11-15T00:23:18.831Z,58.94
2022-11-15T00:25:45.168Z,59.27
2022-11-15T00:28:11.502Z,59.02
2022-11-15T00:30:37.842Z,59.09
2022-11-15T00:33:04.181Z,59.12
2022-11-15T00:35:30.507Z,58.38
2022-11-15T00:37:56.846Z,58.58
2022-11-15T00:40:23.189Z,58.39
2022-11-15T00:42:49.516Z,58.80
2022-11-15T00:45:15.857Z,58.50
2022-11-15T00:47:42.200Z,58.09
2022-11-15T00:50:10.711Z,58.69
2022-11-15T00:52:40.530Z,58.96
2022-11-15T00:55:06.871Z,58.72
2022-11-15T00:57:33.210Z,58.66
2022-11-15T00:59:59.535Z,59.37
2022-11-15T01:02:25.880Z,58.72
2022-11-15T01:04:52.213Z,58.26
2022-11-15T01:07:18.582Z,57.25
2022-11-15T01:09:44.972Z,57.59
2022-11-15T01:12:11.308Z,57.43
2022-11-15T01:14:37.658Z,58.42
2022-11-15T01:17:03.983Z,58.79
2022-11-15T01:19:30.323Z,59.54
2022-11-15T01:21:56.664Z,58.69
2022-11-15T01:24:23.007Z,58.57
2022-11-15T01:26:49.340Z,59.08
2022-11-15T01:29:15.678Z,59.77
2022-11-15T01:31:42.012Z,57.33
2022-11-15T01:34:08.359Z,56.67
2022-11-15T01:36:34.686Z,57.48
2022-11-15T01:39:01.031Z,58.54
2022-11-15T01:41:27.370Z,57.59
2022-11-15T01:43:53.696Z,58.47
2022-11-15T01:46:20.038Z,57.91
2022-11-15T01:48:46.375Z,59.00
2022-11-15T01:51:12.708Z,59.33
2022-11-15T01:53:39.041Z,60.14
2022-11-15T01:56:05.386Z,59.43
2022-11-15T01:58:31.714Z,58.96
2022-11-15T02:00:58.112Z,59.18
2022-11-15T02:03:24.563Z,59.34
2022-11-15T02:05:50.894Z,59.59
2022-11-15T02:08:17.278Z,59.18
2022-11-15T02:10:43.610Z,58.61
2022-11-15T02:13:09.943Z,58.77
2022-11-15T02:15:36.288Z,59.95
2022-11-15T02:18:02.638Z,59.78
2022-11-15T02:20:28.966Z,60.00
2022-11-15T02:22:55.295Z,59.23
2022-11-15T02:25:21.644Z,59.47
2022-11-15T02:27:47.966Z,59.70
2022-11-15T02:30:14.298Z,57.90
2022-11-15T02:32:40.634Z,58.30
2022-11-15T02:35:06.973Z,58.47
2022-11-15T02:37:33.304Z,58.45
2022-11-15T02:39:59.647Z,56.36
2022-11-15T02:42:25.975Z,56.51
2022-11-15T02:44:52.306Z,57.28
2022-11-15T02:47:18.640Z,56.40
2022-11-15T02:49:44.973Z,55.35
2022-11-15T02:52:11.303Z,55.34
2022-11-15T02:54:37.637Z,55.42
2022-11-15T02:57:03.963Z,55.71
2022-11-15T02:59:30.288Z,57.10
2022-11-15T03:01:56.612Z,58.31
2022-11-15T03:04:22.963Z,58.38
2022-11-15T03:06:49.365Z,58.64
2022-11-15T03:09:15.772Z,59.46
2022-11-15T03:11:42.123Z,59.39
2022-11-15T03:14:08.449Z,59.41
2022-11-15T03:16:34.780Z,56.81
2022-11-15T03:19:01.130Z,55.60
2022-11-15T03:21:27.460Z,54.95
2022-11-15T03:23:53.796Z,54.61
2022-11-15T03:26:20.122Z,54.24
2022-11-15T03:28:46.466Z,54.65
2022-11-15T03:31:12.805Z,53.68
2022-11-15T03:33:39.135Z,54.23
2022-11-15T03:36:05.471Z,55.19
2022-11-15T03:38:31.869Z,55.91
2022-11-15T03:40:58.251Z,56.22
2022-11-15T03:43:24.604Z,57.72
2022-11-15T03:45:50.947Z,58.07
2022-11-15T03:48:17.283Z,57.20
2022-11-15T03:50:43.625Z,57.27
2022-11-15T03:53:09.963Z,57.10
2022-11-15T03:55:36.312Z,57.39
2022-11-15T03:58:02.666Z,57.27
2022-11-15T04:00:29.004Z,57.56
2022-11-15T04:02:55.337Z,57.80
2022-11-15T04:05:21.678Z,57.63
2022-11-15T04:07:48.044Z,57.99
2022-11-15T04:10:14.524Z,58.21
2022-11-15T04:12:40.864Z,57.22
2022-11-15T04:15:07.199Z,57.18
2022-11-15T04:17:33.545Z,57.37
2022-11-15T04:19:59.942Z,57.44
2022-11-15T04:22:26.285Z,58.35
2022-11-15T04:24:52.628Z,58.40
2022-11-15T04:27:18.950Z,57.49
2022-11-15T04:29:45.300Z,57.47
2022-11-15T04:32:11.633Z,57.33
2022-11-15T04:34:37.968Z,57.45
2022-11-15T04:37:04.307Z,58.15
2022-11-15T04:39:30.648Z,57.13
2022-11-15T04:41:56.985Z,56.65
2022-11-15T04:44:23.341Z,57.25
2022-11-15T04:46:49.675Z,58.05
2022-11-15T04:49:16.076Z,58.05
2022-11-15T04:51:42.406Z,57.89
2022-11-15T04:54:08.732Z,58.54
2022-11-15T04:56:35.065Z,58.13
2022-11-15T04:59:01.421Z,58.44
2022-11-15T05:01:27.813Z,58.01
2022-11-15T05:03:54.214Z,58.71
2022-11-15T05:06:20.551Z,57.81
2022-11-15T05:08:46.897Z,58.52
2022-11-15T05:11:13.245Z,57.96
2022-11-15T05:13:39.577Z,58.21
2022-11-15T05:16:05.907Z,57.41
2022-11-15T05:18:32.236Z,58.31
2022-11-15T05:20:58.575Z,58.63
2022-11-15T05:23:24.918Z,57.94
2022-11-15T05:25:51.267Z,57.15
2022-11-15T05:28:17.617Z,57.73
2022-11-15T05:30:43.947Z,56.28
2022-11-15T05:33:10.284Z,57.34
2022-11-15T05:35:36.620Z,56.88
2022-11-15T05:38:02.964Z,56.41
2022-11-15T05:40:29.305Z,57.97
2022-11-15T05:42:55.638Z,57.68
2022-11-15T05:45:26.729Z,58.24
2022-11-15T05:47:53.531Z,58.31
2022-11-15T05:50:19.876Z,58.61
2022-11-15T05:52:46.204Z,58.87
2022-11-15T05:55:12.530Z,57.84
2022-11-15T05:57:38.863Z,57.07
2022-11-15T06:00:05.208Z,57.74
2022-11-15T06:02:31.616Z,55.73
2022-11-15T06:04:58.001Z,56.52
2022-11-15T06:07:24.367Z,57.42
2022-11-15T06:09:50.725Z,58.05
2022-11-15T06:12:17.061Z,56.90
2022-11-15T06:14:43.388Z,58.39
2022-11-15T06:17:11.482Z,57.51
2022-11-15T06:19:37.970Z,58.14
2022-11-15T06:22:04.315Z,58.67
2022-11-15T06:24:30.659Z,57.05
2022-11-15T06:26:56.989Z,56.24
2022-11-15T06:29:23.324Z,55.91
2022-11-15T06:31:49.663Z,55.96
2022-11-15T06:34:16.008Z,54.83
2022-11-15T06:36:42.368Z,54.97
2022-11-15T06:39:08.719Z,54.38
2022-11-15T06:41:35.054Z,54.28
2022-11-15T06:44:01.395Z,55.31
2022-11-15T06:46:27.735Z,55.68
2022-11-15T06:48:54.070Z,56.60
2022-11-15T06:51:20.456Z,57.62
2022-11-15T06:53:46.790Z,56.29
2022-11-15T06:56:13.112Z,56.92
2022-11-15T06:58:39.457Z,57.25
2022-11-15T07:01:05.897Z,56.85
2022-11-15T07:03:32.626Z,57.58
2022-11-15T07:06:04.143Z,58.02
2022-11-15T07:08:33.384Z,58.41
2022-11-15T07:10:59.733Z,59.03
2022-11-15T07:13:26.072Z,59.15
2022-11-15T07:15:52.399Z,58.07
2022-11-15T07:18:18.717Z,57.63
2022-11-15T07:20:45.052Z,55.84
2022-11-15T07:23:11.374Z,56.52
2022-11-15T07:25:37.712Z,55.15
2022-11-15T07:28:04.184Z,55.28
2022-11-15T07:30:30.574Z,56.86
2022-11-15T07:32:56.932Z,55.92
2022-11-15T07:35:23.255Z,55.40
2022-11-15T07:37:49.576Z,56.17
2022-11-15T07:40:15.908Z,54.91
2022-11-15T07:42:42.248Z,55.23
2022-11-15T07:45:08.580Z,55.62
2022-11-15T07:47:34.914Z,55.41
2022-11-15T07:50:01.242Z,56.21
2022-11-15T07:52:27.579Z,55.73
2022-11-15T07:54:53.927Z,55.09
2022-11-15T07:57:20.290Z,53.39
2022-11-15T07:59:46.618Z,53.15
2022-11-15T08:02:13.065Z,52.19
2022-11-15T08:04:39.464Z,52.44
2022-11-15T08:07:05.854Z,51.78
2022-11-15T08:09:32.205Z,51.92
2022-11-15T08:11:58.544Z,51.54
2022-11-15T08:14:24.883Z,52.19
2022-11-15T08:16:51.220Z,51.87
2022-11-15T08:19:17.554Z,52.03
2022-11-15T08:21:43.899Z,53.24
2022-11-15T08:24:10.220Z,53.73
2022-11-15T08:26:36.543Z,53.05
2022-11-15T08:29:02.878Z,53.85
2022-11-15T08:31:29.224Z,54.89
2022-11-15T08:33:55.548Z,56.28
2022-11-15T08:36:21.890Z,54.15
2022-11-15T08:38:48.228Z,53.73
2022-11-15T08:41:14.561Z,53.77
2022-11-15T08:43:40.900Z,53.02
2022-11-15T08:46:07.237Z,52.41
2022-11-15T08:48:33.757Z,52.02
2022-11-15T08:51:00.221Z,52.18
2022-11-15T08:53:26.554Z,51.97
2022-11-15T08:55:52.880Z,51.97
2022-11-15T08:58:19.213Z,51.92
2022-11-15T09:00:45.543Z,52.06
2022-11-15T09:03:11.875Z,51.73
2022-11-15T09:05:38.208Z,52.80
2022-11-15T09:08:19.154Z,52.50
2022-11-15T09:10:50.871Z,52.16
2022-11-15T09:13:17.208Z,52.93
2022-11-15T09:15:43.543Z,53.33
2022-11-15T09:18:09.884Z,53.68
2022-11-15T09:20:36.215Z,52.79
2022-11-15T09:23:02.559Z,53.27
2022-11-15T09:25:28.915Z,53.74
2022-11-15T09:27:55.278Z,53.84
2022-11-15T09:30:21.622Z,53.81
2022-11-15T09:32:47.962Z,52.57
2022-11-15T09:35:14.301Z,52.53
2022-11-15T09:37:40.636Z,52.50
2022-11-15T09:40:06.973Z,52.15
2022-11-15T09:42:33.316Z,51.50
2022-11-15T09:44:59.649Z,51.97
2022-11-15T09:47:25.987Z,51.95
2022-11-15T09:49:56.654Z,51.94
2022-11-15T09:52:24.227Z,50.83
2022-11-15T09:54:55.123Z,51.03
2022-11-15T09:57:22.284Z,50.73
2022-11-15T09:59:48.605Z,51.91
2022-11-15T10:02:14.931Z,51.35
2022-11-15T10:04:41.276Z,51.13
2022-11-15T10:07:07.666Z,51.41
2022-11-15T10:09:34.043Z,51.86
2022-11-15T10:12:00.390Z,50.65
2022-11-15T10:14:26.721Z,50.91
2022-11-15T10:16:53.066Z,51.65
2022-11-15T10:19:19.400Z,51.65
2022-11-15T10:21:45.738Z,52.12
2022-11-15T10:24:12.071Z,51.43
2022-11-15T10:26:38.420Z,51.84
2022-11-15T10:29:04.756Z,52.18
2022-11-15T10:31:31.094Z,51.72
2022-11-15T10:33:57.447Z,51.72
2022-11-15T10:36:23.813Z,52.11
2022-11-15T10:38:50.179Z,52.31
2022-11-15T10:41:16.535Z,51.90
2022-11-15T10:43:42.876Z,51.35
2022-11-15T10:46:31.524Z,51.27
2022-11-15T10:48:55.523Z,51.80
2022-11-15T10:51:21.861Z,52.72
2022-11-15T10:53:48.190Z,53.43
2022-11-15T10:56:14.536Z,53.33
2022-11-15T10:58:40.891Z,53.13
2022-11-15T11:01:07.256Z,53.49
2022-11-15T11:03:34.623Z,53.02
2022-11-15T11:06:01.157Z,52.97
2022-11-15T11:08:27.490Z,52.30
2022-11-15T11:10:58.546Z,53.24
2022-11-15T11:13:28.131Z,53.25
2022-11-15T11:15:54.458Z,52.09
2022-11-15T11:18:20.804Z,53.04
2022-11-15T11:20:47.146Z,53.01
2022-11-15T11:23:13.726Z,52.29
2022-11-15T11:25:40.119Z,52.54
2022-11-15T11:28:06.453Z,52.05
2022-11-15T11:30:32.795Z,51.43
2022-11-15T11:32:59.146Z,52.03
2022-11-15T11:35:25.499Z,51.86
2022-11-15T11:37:51.845Z,51.90
2022-11-15T11:40:18.179Z,52.28
2022-11-15T11:42:44.529Z,51.43
2022-11-15T11:45:10.872Z,52.26
2022-11-15T11:47:37.230Z,51.02
2022-11-15T11:50:03.599Z,51.11
2022-11-15T11:52:29.945Z,51.13
2022-11-15T11:54:56.476Z,51.64
2022-11-15T11:57:22.830Z,51.98
2022-11-15T11:59:49.163Z,51.95
2022-11-15T12:02:15.607Z,52.38
2022-11-15T12:04:42.039Z,53.28
2022-11-15T12:07:08.433Z,53.36
2022-11-15T12:09:34.859Z,52.84
2022-11-15T12:12:01.216Z,52.89
2022-11-15T12:14:27.567Z,52.51
2022-11-15T12:16:53.908Z,51.96
2022-11-15T12:19:20.250Z,51.96
2022-11-15T12:21:46.588Z,51.97
2022-11-15T12:24:12.997Z,52.61
2022-11-15T12:26:39.363Z,52.09
2022-11-15T12:29:07.959Z,52.47
2022-11-15T12:31:35.295Z,52.05
2022-11-15T12:34:07.061Z,53.00
2022-11-15T12:36:33.867Z,53.10
2022-11-15T12:39:00.226Z,52.81
2022-11-15T12:41:26.821Z,52.47
2022-11-15T12:43:53.175Z,52.85
2022-11-15T12:46:19.510Z,53.25
2022-11-15T12:48:45.870Z,52.82
2022-11-15T12:51:12.203Z,52.73
2022-11-15T12:53:38.553Z,52.91
2022-11-15T12:56:04.894Z,52.48
2022-11-15T12:58:31.477Z,52.84
2022-11-15T13:00:58.042Z,52.06
2022-11-15T13:03:24.408Z,52.52
2022-11-15T13:05:50.741Z,52.00
2022-11-15T13:08:17.069Z,53.71
2022-11-15T13:10:43.400Z,51.85
2022-11-15T13:13:09.744Z,52.03
2022-11-15T13:15:42.297Z,51.41
2022-11-15T13:18:09.328Z,51.23
2022-11-15T13:20:35.668Z,51.50
2022-11-15T13:23:02.017Z,52.43
2022-11-15T13:25:28.346Z,51.67
2022-11-15T13:27:54.690Z,51.67
2022-11-15T13:30:21.059Z,53.21
2022-11-15T13:32:47.419Z,54.04
2022-11-15T13:35:13.764Z,52.89
2022-11-15T13:37:40.103Z,53.19
2022-11-15T13:40:06.438Z,52.26
2022-11-15T13:42:32.781Z,52.75
2022-11-15T13:44:59.136Z,52.12
2022-11-15T13:47:25.478Z,52.71
2022-11-15T13:49:51.824Z,53.62
2022-11-15T13:52:18.160Z,52.44
2022-11-15T13:54:44.508Z,53.08
2022-11-15T13:57:10.850Z,53.15
2022-11-15T13:59:37.191Z,53.36
2022-11-15T14:02:03.681Z,53.17
2022-11-15T14:04:30.104Z,52.30
2022-11-15T14:06:56.487Z,52.43
2022-11-15T14:09:22.889Z,52.36
2022-11-15T14:11:49.265Z,51.96
2022-11-15T14:14:15.601Z,52.96
2022-11-15T14:16:41.941Z,53.59
2022-11-15T14:19:08.292Z,53.36
2022-11-15T14:21:34.635Z,53.29
2022-11-15T14:24:00.969Z,53.51
2022-11-15T14:26:27.308Z,53.20
2022-11-15T14:28:53.638Z,53.07
2022-11-15T14:31:19.971Z,53.56
2022-11-15T14:33:46.320Z,54.38
2022-11-15T14:36:12.658Z,53.40
2022-11-15T14:38:38.983Z,54.40
2022-11-15T14:41:05.322Z,54.98
2022-11-15T14:43:31.678Z,54.50
2022-11-15T14:45:58.004Z,54.14
2022-11-15T14:48:24.352Z,53.59
2022-11-15T14:50:50.691Z,54.25
2022-11-15T14:53:17.037Z,53.81
2022-11-15T14:55:43.375Z,53.76
2022-11-15T14:58:09.716Z,53.38
2022-11-15T15:00:36.078Z,52.80
2022-11-15T15:03:02.419Z,53.82
2022-11-15T15:05:28.756Z,52.71
2022-11-15T15:07:55.210Z,53.97
2022-11-15T15:13:07.912Z,54.40
2022-11-15T15:15:34.250Z,53.45
2022-11-15T15:18:00.583Z,53.27
2022-11-15T15:20:26.933Z,53.73
2022-11-15T15:22:53.330Z,53.74
2022-11-15T15:25:19.663Z,54.16
2022-11-15T15:27:46.028Z,53.91
2022-11-15T15:30:12.367Z,54.51
2022-11-15T15:32:38.762Z,53.74
2022-11-15T15:35:05.141Z,53.44
2022-11-15T15:37:31.477Z,54.79
2022-11-15T15:39:57.843Z,53.69
2022-11-15T15:42:24.192Z,54.04
2022-11-15T15:44:50.526Z,54.24
2022-11-15T15:47:16.880Z,54.46
2022-11-15T15:49:43.218Z,55.35
2022-11-15T15:52:09.596Z,55.99
2022-11-15T15:54:35.929Z,56.37
2022-11-15T15:57:02.272Z,56.16
2022-11-15T15:59:28.699Z,56.57
2022-11-15T16:01:55.049Z,56.40
2022-11-15T16:04:21.396Z,56.38
2022-11-15T16:06:47.802Z,56.70
2022-11-15T16:09:16.210Z,56.72
2022-11-15T16:11:42.891Z,56.70
2022-11-15T16:14:09.241Z,57.75
2022-11-15T16:16:35.578Z,57.68
2022-11-15T16:19:01.936Z,58.36
2022-11-15T16:21:28.701Z,58.28
2022-11-15T16:23:55.067Z,57.74
2022-11-15T16:26:21.420Z,58.79
2022-11-15T16:28:47.756Z,57.75
2022-11-15T16:31:14.094Z,58.21
2022-11-15T16:33:40.451Z,58.21
2022-11-15T16:36:06.789Z,57.76
2022-11-15T16:38:33.327Z,56.97
2022-11-15T16:40:59.787Z,57.46
2022-11-15T16:43:26.169Z,57.29
2022-11-15T16:45:52.533Z,57.33
2022-11-15T16:48:18.874Z,57.42
2022-11-15T16:50:45.234Z,57.08
2022-11-15T16:53:11.589Z,57.56
2022-11-15T16:55:37.938Z,57.57
2022-11-15T16:58:04.311Z,57.95
2022-11-15T17:00:30.690Z,57.48
2022-11-15T17:02:57.043Z,57.86
2022-11-15T17:05:23.397Z,56.74
2022-11-15T17:07:49.729Z,56.97
2022-11-15T17:10:16.073Z,56.99
2022-11-15T17:12:42.413Z,57.03
2022-11-15T17:15:08.746Z,57.25
2022-11-15T17:17:35.085Z,57.36
2022-11-15T17:20:01.418Z,57.26
2022-11-15T17:22:27.772Z,57.79
2022-11-15T17:24:54.109Z,57.30
2022-11-15T17:27:20.439Z,56.88
2022-11-15T17:29:46.795Z,58.23
2022-11-15T17:32:13.136Z,58.73
2022-11-15T17:34:39.475Z,58.86
2022-11-15T17:37:05.811Z,58.25
2022-11-15T17:39:32.138Z,57.48
2022-11-15T17:41:58.503Z,56.87
2022-11-15T17:44:24.848Z,56.97
2022-11-15T17:46:51.174Z,56.81
2022-11-15T17:49:17.520Z,56.90
2022-11-15T17:51:48.709Z,56.00
2022-11-15T17:54:16.243Z,56.01
2022-11-15T17:56:42.581Z,56.19
2022-11-15T17:59:13.758Z,56.15
2022-11-15T18:01:42.369Z,56.41
2022-11-15T18:04:08.699Z,57.81
2022-11-15T18:06:35.035Z,56.31
2022-11-15T18:09:01.371Z,57.16
2022-11-15T18:11:27.747Z,56.04
2022-11-15T18:13:54.080Z,56.18
2022-11-15T18:16:20.433Z,55.81
2022-11-15T18:18:46.780Z,55.72
2022-11-15T18:21:13.127Z,55.98
2022-11-15T18:23:39.490Z,56.26
2022-11-15T18:26:05.863Z,56.45
2022-11-15T18:28:32.422Z,56.30
2022-11-15T18:30:58.967Z,55.98
2022-11-15T18:33:25.340Z,55.31
2022-11-15T18:35:51.733Z,56.23
2022-11-15T18:38:18.072Z,55.95
2022-11-15T18:40:44.408Z,55.75
2022-11-15T18:43:10.741Z,55.58
2022-11-15T18:45:37.088Z,55.10
2022-11-15T18:48:03.440Z,55.54
2022-11-15T18:50:29.780Z,54.78
2022-11-15T18:52:56.127Z,55.74
2022-11-15T18:55:23.594Z,56.04
2022-11-15T18:57:49.964Z,55.90
2022-11-15T19:00:16.320Z,56.02
2022-11-15T19:02:42.664Z,54.92
2022-11-15T19:05:09.004Z,55.17
2022-11-15T19:07:35.382Z,54.62
2022-11-15T19:10:01.747Z,54.08
2022-11-15T19:12:28.085Z,54.51
2022-11-15T19:14:54.446Z,54.26
2022-11-15T19:17:20.803Z,53.63
2022-11-15T19:19:47.158Z,54.21
2022-11-15T19:22:13.536Z,54.26
2022-11-15T19:24:39.896Z,54.42
2022-11-15T19:27:06.229Z,54.71
2022-11-15T19:29:32.580Z,54.23
2022-11-15T19:31:58.954Z,54.27
2022-11-15T19:34:25.287Z,54.52
2022-11-15T19:36:51.729Z,54.43
2022-11-15T19:39:18.293Z,54.48
2022-11-15T19:41:44.638Z,54.66
2022-11-15T19:44:11.055Z,54.54
2022-11-15T19:46:37.445Z,54.41
2022-11-15T19:49:03.810Z,54.13
2022-11-15T19:51:30.154Z,53.85
2022-11-15T19:53:56.490Z,54.19
2022-11-15T19:56:22.854Z,53.86
2022-11-15T19:58:49.213Z,54.54
2022-11-15T20:01:15.711Z,55.56
2022-11-15T20:03:42.143Z,54.62
2022-11-15T20:06:08.553Z,54.58
2022-11-15T20:08:35.305Z,54.75
2022-11-15T20:11:02.006Z,54.30
2022-11-15T20:13:28.365Z,54.36
2022-11-15T20:15:54.718Z,54.78
2022-11-15T20:18:21.058Z,55.30
2022-11-15T20:20:47.400Z,55.11
2022-11-15T20:23:14.063Z,55.88
2022-11-15T20:25:40.496Z,57.24
2022-11-15T20:28:06.875Z,54.81
2022-11-15T20:30:33.271Z,55.00
2022-11-15T20:32:59.703Z,55.17
2022-11-15T20:35:26.166Z,54.54
2022-11-15T20:37:52.508Z,54.66
2022-11-15T20:40:18.961Z,54.83
2022-11-15T20:42:45.304Z,54.82
2022-11-15T20:45:11.665Z,55.19
2022-11-15T20:47:38.011Z,55.54
2022-11-15T20:50:27.576Z,55.05
2022-11-15T20:52:50.686Z,54.44
2022-11-15T20:55:17.049Z,54.59
2022-11-15T20:57:43.402Z,54.66
2022-11-15T21:00:09.760Z,54.67
2022-11-15T21:02:36.178Z,54.50
2022-11-15T21:05:02.564Z,54.87
2022-11-15T21:07:29.182Z,54.79
2022-11-15T21:09:55.540Z,55.13
2022-11-15T21:12:21.891Z,55.11
2022-11-15T21:14:48.227Z,55.32
2022-11-15T21:17:14.590Z,55.62
2022-11-15T21:19:40.923Z,55.50
2022-11-15T21:22:07.281Z,55.12
2022-11-15T21:24:33.637Z,55.40
2022-11-15T21:26:59.972Z,55.86
2022-11-15T21:29:26.314Z,56.07
2022-11-15T21:31:52.658Z,55.23
2022-11-15T21:34:19.005Z,55.91
2022-11-15T21:36:45.341Z,55.37
2022-11-15T21:39:11.677Z,55.30
2022-11-15T21:41:38.019Z,55.33
2022-11-15T21:44:04.351Z,55.35
2022-11-15T21:46:30.701Z,55.70
2022-11-15T21:48:57.044Z,56.54
2022-11-15T21:51:23.380Z,55.57
2022-11-15T21:53:49.716Z,56.37
2022-11-15T21:56:16.048Z,56.11
2022-11-15T21:58:42.394Z,56.36
2022-11-15T22:01:08.814Z,56.32
2022-11-15T22:03:35.187Z,56.64
2022-11-15T22:06:01.538Z,56.52
2022-11-15T22:08:27.880Z,57.66
2022-11-15T22:10:54.230Z,57.83
2022-11-15T22:13:20.562Z,57.81
2022-11-15T22:15:46.909Z,57.48
2022-11-15T22:18:13.265Z,56.72
2022-11-15T22:20:46.723Z,57.29
2022-11-15T22:23:13.069Z,57.60
2022-11-15T22:25:39.424Z,58.01
2022-11-15T22:28:05.753Z,58.29
2022-11-15T22:30:32.106Z,57.50
2022-11-15T22:32:58.458Z,57.00
2022-11-15T22:35:24.787Z,56.94
2022-11-15T22:37:51.128Z,56.78
2022-11-15T22:40:17.467Z,57.06
2022-11-15T22:42:43.803Z,57.92
2022-11-15T22:45:10.150Z,56.50
2022-11-15T22:47:36.497Z,56.83
2022-11-15T22:50:02.847Z,57.65
2022-11-15T22:52:29.203Z,58.50
2022-11-15T22:54:55.544Z,58.16
2022-11-15T22:57:21.907Z,57.96
2022-11-15T22:59:48.235Z,58.66
2022-11-15T23:02:14.594Z,58.53
2022-11-15T23:04:40.956Z,58.15
2022-11-15T23:07:07.356Z,58.19
2022-11-15T23:09:33.764Z,59.24
2022-11-15T23:12:00.107Z,58.27
2022-11-15T23:14:26.435Z,60.98
2022-11-15T23:16:52.772Z,59.54
2022-11-15T23:19:19.113Z,58.99
2022-11-15T23:21:46.155Z,59.48
2022-11-15T23:24:12.491Z,60.01
2022-11-15T23:26:38.830Z,58.10
2022-11-15T23:29:05.169Z,60.12
2022-11-15T23:31:31.511Z,61.11
2022-11-15T23:33:57.851Z,63.46
2022-11-15T23:36:24.179Z,63.45
2022-11-15T23:38:50.514Z,66.50
2022-11-15T23:41:16.859Z,78.00
2022-11-15T23:43:43.228Z,80.14
2022-11-15T23:46:09.559Z,76.48
2022-11-15T23:48:35.992Z,74.67
2022-11-15T23:51:02.492Z,74.80
2022-11-15T23:53:28.844Z,74.24
2022-11-15T23:55:55.185Z,71.18
2022-11-15T23:58:21.510Z,72.47
